Monroe, LA (71201)

9:54 AM CDT on October 30, 2014 (GMT -0500)
Kiroli Area / | Change Station
CLOSE
Current Station
Personal Weather Station
Location: West Monroe, LA
Elevation: 112 ft
Nearby Weather Stations

Elev 112 ft 32.53 °N, 92.15 °W | Updated 9 minutes ago

Clear
Clear
58.5 °F
Feels Like 58.5 °F
N
0.0
Wind Variable Wind from West

Today
High -- | Low -- °F
--% Chance of Precip.
Yesterday
High -- | Low -- °F
Precip. -- in
7:24 AM 6:19 PM
Waxing Crescent, 44% visible
Pressure 30.19 in
Visibility 10.0 miles
Clouds Clear
Dew Point 53 °F
Humidity 83%
Rainfall 0.00 in
Snow Depth Not available.
UV 1 out of 12
Pollen 1.50 out of 12
Air Quality Not available.
Flu Activity Not available.
METAR KMLU 301353Z 34003KT 10SM CLR 11/09 A3019 RMK AO2 SLP221 T01110089

More Conditions Fewer Conditions

Pressure 30.19 in
Visibility 10.0 miles
Clouds Clear
Dew Point 53 °F
Humidity 83%
Rainfall 0.00 in
Snow Depth Not available.
UV 1 out of 12
Pollen 1.50 out of 12
Air Quality Not available.
Flu Activity Not available.
METAR KMLU 301353Z 34003KT 10SM CLR 11/09 A3019 RMK AO2 SLP221 T01110089

More Conditions Fewer Conditions

10-Day Weather Forecast

Almanac

Astronomy

Oct. 30, 2014 Rise Set
Actual Time
Civil Twilight
Nautical Twilight
Astronomical Twilight
Moon
Length of Visible Light
Length of Day
Tomorrow will be .
, % of the Moon is Illuminated

Today's Extremes

State Highs State Lows

Community

WunderPhotos

Upload Photos

1,766,379 photos uploaded!

WunderBlogs® & News

Nearby

Air Quality

  Air Quality AQ Index Pollutant
Not available.

Snow Depth

Station Depth Elevation

Earthquake Activity

City Distance Mag. Time & Date
Minimum magnitude displayed is 2.5.

Coastal Water Temperatures

Place Temperature

Nearby Weather Stations